sensor_id;sensor_type;location;lat;lon;timestamp;temperature;humidity
4637;DHT22;2331;48.806;9.140;2023-02-18T00:01:09;14.30;1.00
4637;DHT22;2331;48.806;9.140;2023-02-18T00:03:36;14.30;1.00
4637;DHT22;2331;48.806;9.140;2023-02-18T00:06:10;14.40;1.00
4637;DHT22;2331;48.806;9.140;2023-02-18T00:08:37;14.30;1.00
4637;DHT22;2331;48.806;9.140;2023-02-18T00:11:04;14.30;1.00
4637;DHT22;2331;48.806;9.140;2023-02-18T00:13:32;14.40;1.00
4637;DHT22;2331;48.806;9.140;2023-02-18T00:16:00;14.40;1.00
4637;DHT22;2331;48.806;9.140;2023-02-18T00:18:27;14.40;1.00
4637;DHT22;2331;48.806;9.140;2023-02-18T00:20:53;14.30;1.00
4637;DHT22;2331;48.806;9.140;2023-02-18T00:23:20;14.30;1.00
4637;DHT22;2331;48.806;9.140;2023-02-18T00:25:47;14.30;1.00
4637;DHT22;2331;48.806;9.140;2023-02-18T00:28:13;14.30;1.00
4637;DHT22;2331;48.806;9.140;2023-02-18T00:30:42;14.40;1.00
4637;DHT22;2331;48.806;9.140;2023-02-18T00:33:09;14.30;1.00
4637;DHT22;2331;48.806;9.140;2023-02-18T00:35:36;14.40;1.00
4637;DHT22;2331;48.806;9.140;2023-02-18T00:38:02;14.50;1.00
4637;DHT22;2331;48.806;9.140;2023-02-18T00:40:29;14.40;1.00
4637;DHT22;2331;48.806;9.140;2023-02-18T00:42:55;14.40;1.00
4637;DHT22;2331;48.806;9.140;2023-02-18T00:45:22;14.30;1.00
4637;DHT22;2331;48.806;9.140;2023-02-18T00:47:50;14.30;1.00
4637;DHT22;2331;48.806;9.140;2023-02-18T00:50:17;14.20;1.00
4637;DHT22;2331;48.806;9.140;2023-02-18T00:52:44;14.30;1.00
4637;DHT22;2331;48.806;9.140;2023-02-18T00:55:10;14.20;1.00
4637;DHT22;2331;48.806;9.140;2023-02-18T00:57:37;14.10;1.00
4637;DHT22;2331;48.806;9.140;2023-02-18T01:00:05;14.20;1.00
4637;DHT22;2331;48.806;9.140;2023-02-18T01:02:32;14.20;1.00
4637;DHT22;2331;48.806;9.140;2023-02-18T01:05:00;14.30;1.00
4637;DHT22;2331;48.806;9.140;2023-02-18T01:07:27;14.20;1.00
4637;DHT22;2331;48.806;9.140;2023-02-18T01:09:53;14.10;1.00
4637;DHT22;2331;48.806;9.140;2023-02-18T01:12:20;14.20;1.00
4637;DHT22;2331;48.806;9.140;2023-02-18T01:14:47;14.10;1.00
4637;DHT22;2331;48.806;9.140;2023-02-18T01:17:14;14.00;1.00
4637;DHT22;2331;48.806;9.140;2023-02-18T01:19:40;14.10;1.00
4637;DHT22;2331;48.806;9.140;2023-02-18T01:22:08;14.00;1.00
4637;DHT22;2331;48.806;9.140;2023-02-18T01:24:35;14.10;1.00
4637;DHT22;2331;48.806;9.140;2023-02-18T01:27:03;14.10;1.00
4637;DHT22;2331;48.806;9.140;2023-02-18T01:29:29;14.10;1.00
4637;DHT22;2331;48.806;9.140;2023-02-18T01:31:56;14.20;1.00
4637;DHT22;2331;48.806;9.140;2023-02-18T01:34:23;14.10;1.00
4637;DHT22;2331;48.806;9.140;2023-02-18T01:36:49;14.10;1.00
4637;DHT22;2331;48.806;9.140;2023-02-18T01:39:17;14.00;1.00
4637;DHT22;2331;48.806;9.140;2023-02-18T01:41:44;13.90;1.00
4637;DHT22;2331;48.806;9.140;2023-02-18T01:44:13;13.90;1.00
4637;DHT22;2331;48.806;9.140;2023-02-18T01:46:40;13.90;1.00
4637;DHT22;2331;48.806;9.140;2023-02-18T01:49:07;14.00;1.00
4637;DHT22;2331;48.806;9.140;2023-02-18T01:51:38;14.00;1.00
4637;DHT22;2331;48.806;9.140;2023-02-18T01:54:09;14.00;1.00
4637;DHT22;2331;48.806;9.140;2023-02-18T01:56:41;14.00;1.00
4637;DHT22;2331;48.806;9.140;2023-02-18T01:59:12;14.00;1.00
4637;DHT22;2331;48.806;9.140;2023-02-18T02:01:41;14.00;1.00
4637;DHT22;2331;48.806;9.140;2023-02-18T02:04:09;14.00;1.00
4637;DHT22;2331;48.806;9.140;2023-02-18T02:06:36;13.80;1.00
4637;DHT22;2331;48.806;9.140;2023-02-18T02:09:05;13.80;1.00
4637;DHT22;2331;48.806;9.140;2023-02-18T02:14:34;14.00;1.00
4637;DHT22;2331;48.806;9.140;2023-02-18T02:17:10;13.90;1.00
4637;DHT22;2331;48.806;9.140;2023-02-18T02:20:24;13.90;1.00
4637;DHT22;2331;48.806;9.140;2023-02-18T02:23:22;13.90;1.00
4637;DHT22;2331;48.806;9.140;2023-02-18T02:26:12;13.90;1.00
4637;DHT22;2331;48.806;9.140;2023-02-18T02:29:12;14.00;1.00
4637;DHT22;2331;48.806;9.140;2023-02-18T02:32:00;14.00;1.00
4637;DHT22;2331;48.806;9.140;2023-02-18T02:34:39;14.00;1.00
4637;DHT22;2331;48.806;9.140;2023-02-18T02:37:14;13.90;1.00
4637;DHT22;2331;48.806;9.140;2023-02-18T02:39:50;13.90;1.00
4637;DHT22;2331;48.806;9.140;2023-02-18T02:42:25;13.90;1.00
4637;DHT22;2331;48.806;9.140;2023-02-18T02:45:00;14.00;1.00
4637;DHT22;2331;48.806;9.140;2023-02-18T02:47:33;13.90;1.00
4637;DHT22;2331;48.806;9.140;2023-02-18T02:50:07;13.90;1.00
4637;DHT22;2331;48.806;9.140;2023-02-18T02:52:39;13.90;1.00
4637;DHT22;2331;48.806;9.140;2023-02-18T02:55:08;14.00;1.00
4637;DHT22;2331;48.806;9.140;2023-02-18T02:57:47;13.90;1.00
4637;DHT22;2331;48.806;9.140;2023-02-18T03:00:17;14.00;1.00
4637;DHT22;2331;48.806;9.140;2023-02-18T03:03:06;14.00;1.00
4637;DHT22;2331;48.806;9.140;2023-02-18T03:05:54;14.00;1.00
4637;DHT22;2331;48.806;9.140;2023-02-18T03:08:39;13.90;1.00
4637;DHT22;2331;48.806;9.140;2023-02-18T03:11:08;13.90;1.00
4637;DHT22;2331;48.806;9.140;2023-02-18T03:13:48;14.00;1.00
4637;DHT22;2331;48.806;9.140;2023-02-18T03:16:23;14.00;1.00
4637;DHT22;2331;48.806;9.140;2023-02-18T03:18:58;13.90;1.00
4637;DHT22;2331;48.806;9.140;2023-02-18T03:21:32;13.90;1.00
4637;DHT22;2331;48.806;9.140;2023-02-18T03:24:03;13.90;1.00
4637;DHT22;2331;48.806;9.140;2023-02-18T03:26:34;13.90;1.00
4637;DHT22;2331;48.806;9.140;2023-02-18T03:29:04;13.80;1.00
4637;DHT22;2331;48.806;9.140;2023-02-18T03:31:34;13.90;1.00
4637;DHT22;2331;48.806;9.140;2023-02-18T03:34:05;13.90;1.00
4637;DHT22;2331;48.806;9.140;2023-02-18T03:36:34;13.80;1.00
4637;DHT22;2331;48.806;9.140;2023-02-18T03:39:04;13.80;1.00
4637;DHT22;2331;48.806;9.140;2023-02-18T03:41:32;13.80;1.00
4637;DHT22;2331;48.806;9.140;2023-02-18T03:44:01;13.80;1.00
4637;DHT22;2331;48.806;9.140;2023-02-18T03:46:29;13.80;1.00
4637;DHT22;2331;48.806;9.140;2023-02-18T03:48:57;13.80;1.00
4637;DHT22;2331;48.806;9.140;2023-02-18T03:51:24;13.80;1.00
4637;DHT22;2331;48.806;9.140;2023-02-18T03:53:52;13.70;1.00
4637;DHT22;2331;48.806;9.140;2023-02-18T03:56:19;13.70;1.00
4637;DHT22;2331;48.806;9.140;2023-02-18T03:58:45;13.70;1.00
4637;DHT22;2331;48.806;9.140;2023-02-18T04:01:12;13.60;1.00
4637;DHT22;2331;48.806;9.140;2023-02-18T04:03:39;13.70;1.00
4637;DHT22;2331;48.806;9.140;2023-02-18T04:06:06;13.70;1.00
4637;DHT22;2331;48.806;9.140;2023-02-18T04:08:33;13.70;1.00
4637;DHT22;2331;48.806;9.140;2023-02-18T04:11:01;13.70;1.00
4637;DHT22;2331;48.806;9.140;2023-02-18T04:13:29;13.70;1.00
4637;DHT22;2331;48.806;9.140;2023-02-18T04:15:56;13.60;1.00
4637;DHT22;2331;48.806;9.140;2023-02-18T04:18:23;13.70;1.00
4637;DHT22;2331;48.806;9.140;2023-02-18T04:20:50;13.70;1.00
4637;DHT22;2331;48.806;9.140;2023-02-18T04:23:17;13.60;1.00
4637;DHT22;2331;48.806;9.140;2023-02-18T04:25:43;13.70;1.00
4637;DHT22;2331;48.806;9.140;2023-02-18T04:28:12;13.60;1.00
4637;DHT22;2331;48.806;9.140;2023-02-18T04:30:39;13.60;1.00
4637;DHT22;2331;48.806;9.140;2023-02-18T04:33:06;13.60;1.00
4637;DHT22;2331;48.806;9.140;2023-02-18T04:35:33;13.60;1.00
4637;DHT22;2331;48.806;9.140;2023-02-18T04:38:01;13.60;1.00
4637;DHT22;2331;48.806;9.140;2023-02-18T04:40:28;13.60;1.00
4637;DHT22;2331;48.806;9.140;2023-02-18T04:42:55;13.50;1.00
4637;DHT22;2331;48.806;9.140;2023-02-18T04:45:23;13.50;1.00
4637;DHT22;2331;48.806;9.140;2023-02-18T04:47:50;13.50;1.00
4637;DHT22;2331;48.806;9.140;2023-02-18T04:50:17;13.50;1.00
4637;DHT22;2331;48.806;9.140;2023-02-18T04:52:44;13.50;1.00
4637;DHT22;2331;48.806;9.140;2023-02-18T04:55:11;13.50;1.00
4637;DHT22;2331;48.806;9.140;2023-02-18T04:57:38;13.50;1.00
4637;DHT22;2331;48.806;9.140;2023-02-18T05:00:07;13.50;1.00
4637;DHT22;2331;48.806;9.140;2023-02-18T05:02:36;13.40;1.00
4637;DHT22;2331;48.806;9.140;2023-02-18T05:05:03;13.40;1.00
4637;DHT22;2331;48.806;9.140;2023-02-18T05:07:30;13.40;1.00
4637;DHT22;2331;48.806;9.140;2023-02-18T05:09:57;13.40;1.00
4637;DHT22;2331;48.806;9.140;2023-02-18T05:12:24;13.30;1.00
4637;DHT22;2331;48.806;9.140;2023-02-18T05:14:50;13.30;1.00
4637;DHT22;2331;48.806;9.140;2023-02-18T05:17:17;13.30;1.00
4637;DHT22;2331;48.806;9.140;2023-02-18T05:19:45;13.30;1.00
4637;DHT22;2331;48.806;9.140;2023-02-18T05:22:12;13.40;1.00
4637;DHT22;2331;48.806;9.140;2023-02-18T05:24:39;13.40;1.00
4637;DHT22;2331;48.806;9.140;2023-02-18T05:27:05;13.40;1.00
4637;DHT22;2331;48.806;9.140;2023-02-18T05:29:32;13.30;1.00
4637;DHT22;2331;48.806;9.140;2023-02-18T05:31:59;13.30;1.00
4637;DHT22;2331;48.806;9.140;2023-02-18T05:34:25;13.20;1.00
4637;DHT22;2331;48.806;9.140;2023-02-18T05:36:53;13.20;1.00
4637;DHT22;2331;48.806;9.140;2023-02-18T05:39:20;13.30;1.00
4637;DHT22;2331;48.806;9.140;2023-02-18T05:41:48;13.30;1.00
4637;DHT22;2331;48.806;9.140;2023-02-18T05:44:14;13.30;1.00
4637;DHT22;2331;48.806;9.140;2023-02-18T05:46:56;13.20;1.00
4637;DHT22;2331;48.806;9.140;2023-02-18T05:49:24;13.20;1.00
4637;DHT22;2331;48.806;9.140;2023-02-18T05:51:52;13.20;1.00
4637;DHT22;2331;48.806;9.140;2023-02-18T05:54:19;13.20;1.00
4637;DHT22;2331;48.806;9.140;2023-02-18T05:56:46;13.10;1.00
4637;DHT22;2331;48.806;9.140;2023-02-18T05:59:13;13.10;1.00
4637;DHT22;2331;48.806;9.140;2023-02-18T06:01:40;13.00;1.00
4637;DHT22;2331;48.806;9.140;2023-02-18T06:04:07;13.10;1.00
4637;DHT22;2331;48.806;9.140;2023-02-18T06:06:34;13.10;1.00
4637;DHT22;2331;48.806;9.140;2023-02-18T06:09:03;13.10;1.00
4637;DHT22;2331;48.806;9.140;2023-02-18T06:11:30;13.10;1.00
4637;DHT22;2331;48.806;9.140;2023-02-18T06:13:57;13.10;1.00
4637;DHT22;2331;48.806;9.140;2023-02-18T06:16:24;13.10;1.00
4637;DHT22;2331;48.806;9.140;2023-02-18T06:18:51;13.10;1.00
4637;DHT22;2331;48.806;9.140;2023-02-18T06:21:18;13.10;1.00
4637;DHT22;2331;48.806;9.140;2023-02-18T06:23:45;13.10;1.00
4637;DHT22;2331;48.806;9.140;2023-02-18T06:26:13;13.20;1.00
4637;DHT22;2331;48.806;9.140;2023-02-18T06:28:40;13.20;1.00
4637;DHT22;2331;48.806;9.140;2023-02-18T06:31:06;13.10;1.00
4637;DHT22;2331;48.806;9.140;2023-02-18T06:33:33;13.10;1.00
4637;DHT22;2331;48.806;9.140;2023-02-18T06:36:02;13.10;1.00
4637;DHT22;2331;48.806;9.140;2023-02-18T06:38:31;13.10;1.00
4637;DHT22;2331;48.806;9.140;2023-02-18T06:40:58;13.10;1.00
4637;DHT22;2331;48.806;9.140;2023-02-18T06:43:26;13.10;1.00
4637;DHT22;2331;48.806;9.140;2023-02-18T06:45:53;13.10;1.00
4637;DHT22;2331;48.806;9.140;2023-02-18T06:48:20;13.10;1.00
4637;DHT22;2331;48.806;9.140;2023-02-18T06:50:47;13.10;1.00
4637;DHT22;2331;48.806;9.140;2023-02-18T06:53:14;13.10;1.00
4637;DHT22;2331;48.806;9.140;2023-02-18T06:55:42;13.10;1.00
4637;DHT22;2331;48.806;9.140;2023-02-18T06:58:10;13.20;1.00
4637;DHT22;2331;48.806;9.140;2023-02-18T07:00:38;13.20;1.00
4637;DHT22;2331;48.806;9.140;2023-02-18T07:03:05;13.10;1.00
4637;DHT22;2331;48.806;9.140;2023-02-18T07:05:32;13.20;1.00
4637;DHT22;2331;48.806;9.140;2023-02-18T07:08:00;13.10;1.00
4637;DHT22;2331;48.806;9.140;2023-02-18T07:10:27;13.10;1.00
4637;DHT22;2331;48.806;9.140;2023-02-18T07:12:54;13.20;1.00
4637;DHT22;2331;48.806;9.140;2023-02-18T07:15:20;13.20;1.00
4637;DHT22;2331;48.806;9.140;2023-02-18T07:17:50;13.20;1.00
4637;DHT22;2331;48.806;9.140;2023-02-18T07:20:17;13.20;1.00
4637;DHT22;2331;48.806;9.140;2023-02-18T07:22:44;13.30;1.00
4637;DHT22;2331;48.806;9.140;2023-02-18T07:25:11;13.30;1.00
4637;DHT22;2331;48.806;9.140;2023-02-18T07:27:37;13.30;1.00
4637;DHT22;2331;48.806;9.140;2023-02-18T07:30:05;13.30;1.00
4637;DHT22;2331;48.806;9.140;2023-02-18T07:32:32;13.40;1.00
4637;DHT22;2331;48.806;9.140;2023-02-18T07:35:00;13.40;1.00
4637;DHT22;2331;48.806;9.140;2023-02-18T07:37:27;13.40;1.00
4637;DHT22;2331;48.806;9.140;2023-02-18T07:39:54;13.50;1.00
4637;DHT22;2331;48.806;9.140;2023-02-18T07:42:20;13.50;1.00
4637;DHT22;2331;48.806;9.140;2023-02-18T07:44:47;13.40;1.00
4637;DHT22;2331;48.806;9.140;2023-02-18T07:47:15;13.40;1.00
4637;DHT22;2331;48.806;9.140;2023-02-18T07:49:44;13.50;1.00
4637;DHT22;2331;48.806;9.140;2023-02-18T07:52:12;13.50;1.00
4637;DHT22;2331;48.806;9.140;2023-02-18T07:54:39;13.50;1.00
4637;DHT22;2331;48.806;9.140;2023-02-18T07:57:06;13.60;1.00
4637;DHT22;2331;48.806;9.140;2023-02-18T07:59:32;13.60;1.00
4637;DHT22;2331;48.806;9.140;2023-02-18T08:01:59;13.70;1.00
4637;DHT22;2331;48.806;9.140;2023-02-18T08:04:26;13.80;1.00
4637;DHT22;2331;48.806;9.140;2023-02-18T08:06:52;13.80;1.00
4637;DHT22;2331;48.806;9.140;2023-02-18T08:09:20;13.90;1.00
4637;DHT22;2331;48.806;9.140;2023-02-18T08:11:47;13.90;1.00
4637;DHT22;2331;48.806;9.140;2023-02-18T08:14:14;13.90;1.00
4637;DHT22;2331;48.806;9.140;2023-02-18T08:16:40;13.90;1.00
4637;DHT22;2331;48.806;9.140;2023-02-18T08:19:07;13.90;1.00
4637;DHT22;2331;48.806;9.140;2023-02-18T08:21:34;14.00;1.00
4637;DHT22;2331;48.806;9.140;2023-02-18T08:24:01;14.10;1.00
4637;DHT22;2331;48.806;9.140;2023-02-18T08:26:29;14.10;1.00
4637;DHT22;2331;48.806;9.140;2023-02-18T08:28:55;14.10;1.00
4637;DHT22;2331;48.806;9.140;2023-02-18T08:31:24;14.10;1.00
4637;DHT22;2331;48.806;9.140;2023-02-18T08:33:52;14.20;1.00
4637;DHT22;2331;48.806;9.140;2023-02-18T08:36:19;14.10;1.00
4637;DHT22;2331;48.806;9.140;2023-02-18T08:38:46;14.20;1.00
4637;DHT22;2331;48.806;9.140;2023-02-18T08:41:13;14.30;1.00
4637;DHT22;2331;48.806;9.140;2023-02-18T08:43:42;14.30;1.00
4637;DHT22;2331;48.806;9.140;2023-02-18T08:46:08;14.30;1.00
4637;DHT22;2331;48.806;9.140;2023-02-18T08:48:35;14.40;1.00
4637;DHT22;2331;48.806;9.140;2023-02-18T08:51:11;14.50;1.00
4637;DHT22;2331;48.806;9.140;2023-02-18T08:53:38;14.50;1.00
4637;DHT22;2331;48.806;9.140;2023-02-18T08:56:06;14.50;1.00
4637;DHT22;2331;48.806;9.140;2023-02-18T08:58:32;14.50;1.00
4637;DHT22;2331;48.806;9.140;2023-02-18T09:01:03;14.40;1.00
4637;DHT22;2331;48.806;9.140;2023-02-18T09:03:31;14.50;1.00
4637;DHT22;2331;48.806;9.140;2023-02-18T09:05:58;14.60;1.00
4637;DHT22;2331;48.806;9.140;2023-02-18T09:08:26;14.60;1.00
4637;DHT22;2331;48.806;9.140;2023-02-18T09:10:54;14.60;1.00
4637;DHT22;2331;48.806;9.140;2023-02-18T09:13:22;14.60;1.00
4637;DHT22;2331;48.806;9.140;2023-02-18T09:15:55;14.70;1.00
4637;DHT22;2331;48.806;9.140;2023-02-18T09:18:24;14.60;1.00
4637;DHT22;2331;48.806;9.140;2023-02-18T09:20:51;14.70;1.00
4637;DHT22;2331;48.806;9.140;2023-02-18T09:23:17;14.70;1.00
4637;DHT22;2331;48.806;9.140;2023-02-18T09:25:45;14.80;1.00
4637;DHT22;2331;48.806;9.140;2023-02-18T09:28:12;14.90;1.00
4637;DHT22;2331;48.806;9.140;2023-02-18T09:30:39;14.80;1.00
4637;DHT22;2331;48.806;9.140;2023-02-18T09:33:05;14.90;1.00
4637;DHT22;2331;48.806;9.140;2023-02-18T09:35:38;14.90;1.00
4637;DHT22;2331;48.806;9.140;2023-02-18T09:38:04;15.00;1.00
4637;DHT22;2331;48.806;9.140;2023-02-18T09:40:32;15.00;1.00
4637;DHT22;2331;48.806;9.140;2023-02-18T09:43:00;15.10;1.00
4637;DHT22;2331;48.806;9.140;2023-02-18T09:45:28;15.10;1.00
4637;DHT22;2331;48.806;9.140;2023-02-18T09:47:55;15.10;1.00
4637;DHT22;2331;48.806;9.140;2023-02-18T09:50:25;15.10;1.00
4637;DHT22;2331;48.806;9.140;2023-02-18T09:52:54;15.20;1.00
4637;DHT22;2331;48.806;9.140;2023-02-18T09:55:23;15.30;1.00
4637;DHT22;2331;48.806;9.140;2023-02-18T09:57:52;15.20;1.00
4637;DHT22;2331;48.806;9.140;2023-02-18T10:00:21;15.00;1.00
4637;DHT22;2331;48.806;9.140;2023-02-18T10:02:54;14.80;1.00
4637;DHT22;2331;48.806;9.140;2023-02-18T10:05:22;15.00;1.00
4637;DHT22;2331;48.806;9.140;2023-02-18T10:07:52;15.00;1.00
4637;DHT22;2331;48.806;9.140;2023-02-18T10:10:26;15.00;1.00
4637;DHT22;2331;48.806;9.140;2023-02-18T10:12:57;15.30;1.00
4637;DHT22;2331;48.806;9.140;2023-02-18T10:15:28;15.30;1.00
4637;DHT22;2331;48.806;9.140;2023-02-18T10:17:56;15.20;1.00
4637;DHT22;2331;48.806;9.140;2023-02-18T10:20:25;15.20;1.00
4637;DHT22;2331;48.806;9.140;2023-02-18T10:22:53;15.30;1.00
4637;DHT22;2331;48.806;9.140;2023-02-18T10:25:24;15.30;1.00
4637;DHT22;2331;48.806;9.140;2023-02-18T10:27:52;15.30;1.00
4637;DHT22;2331;48.806;9.140;2023-02-18T10:30:26;15.40;1.00
4637;DHT22;2331;48.806;9.140;2023-02-18T10:33:13;15.40;1.00
4637;DHT22;2331;48.806;9.140;2023-02-18T10:35:46;15.40;1.00
4637;DHT22;2331;48.806;9.140;2023-02-18T10:38:19;15.50;1.00
4637;DHT22;2331;48.806;9.140;2023-02-18T10:40:55;15.50;1.00
4637;DHT22;2331;48.806;9.140;2023-02-18T10:43:29;15.50;1.00
4637;DHT22;2331;48.806;9.140;2023-02-18T10:46:03;15.50;1.00
4637;DHT22;2331;48.806;9.140;2023-02-18T10:48:47;15.50;1.00
4637;DHT22;2331;48.806;9.140;2023-02-18T10:51:20;15.60;1.00
4637;DHT22;2331;48.806;9.140;2023-02-18T10:53:50;15.60;1.00
4637;DHT22;2331;48.806;9.140;2023-02-18T10:56:34;15.80;1.00
4637;DHT22;2331;48.806;9.140;2023-02-18T10:59:08;15.80;1.00
4637;DHT22;2331;48.806;9.140;2023-02-18T11:01:35;15.80;1.00
4637;DHT22;2331;48.806;9.140;2023-02-18T11:04:11;15.80;1.00
4637;DHT22;2331;48.806;9.140;2023-02-18T11:06:40;15.90;1.00
4637;DHT22;2331;48.806;9.140;2023-02-18T11:09:25;15.90;1.00
4637;DHT22;2331;48.806;9.140;2023-02-18T11:12:01;16.10;1.00
4637;DHT22;2331;48.806;9.140;2023-02-18T11:14:40;15.80;1.00
4637;DHT22;2331;48.806;9.140;2023-02-18T11:17:14;16.00;1.00
4637;DHT22;2331;48.806;9.140;2023-02-18T11:19:41;16.00;1.00
4637;DHT22;2331;48.806;9.140;2023-02-18T11:22:14;16.10;1.00
4637;DHT22;2331;48.806;9.140;2023-02-18T11:24:41;16.10;1.00
4637;DHT22;2331;48.806;9.140;2023-02-18T11:27:19;16.00;1.00
4637;DHT22;2331;48.806;9.140;2023-02-18T11:29:49;16.00;1.00
4637;DHT22;2331;48.806;9.140;2023-02-18T11:32:17;16.20;1.00
4637;DHT22;2331;48.806;9.140;2023-02-18T11:34:44;16.20;1.00
4637;DHT22;2331;48.806;9.140;2023-02-18T11:37:16;16.30;1.00
4637;DHT22;2331;48.806;9.140;2023-02-18T11:39:44;16.30;1.00
4637;DHT22;2331;48.806;9.140;2023-02-18T11:42:15;16.20;1.00
4637;DHT22;2331;48.806;9.140;2023-02-18T11:44:50;16.30;1.00
4637;DHT22;2331;48.806;9.140;2023-02-18T11:47:23;16.30;1.00
4637;DHT22;2331;48.806;9.140;2023-02-18T11:50:15;16.10;1.00
4637;DHT22;2331;48.806;9.140;2023-02-18T11:52:47;16.20;1.00
4637;DHT22;2331;48.806;9.140;2023-02-18T11:55:17;16.30;1.00
4637;DHT22;2331;48.806;9.140;2023-02-18T11:57:49;16.40;1.00
4637;DHT22;2331;48.806;9.140;2023-02-18T12:00:23;16.30;1.00
4637;DHT22;2331;48.806;9.140;2023-02-18T12:02:52;16.40;1.00
4637;DHT22;2331;48.806;9.140;2023-02-18T12:05:21;16.30;1.00
4637;DHT22;2331;48.806;9.140;2023-02-18T12:07:51;16.50;1.00
4637;DHT22;2331;48.806;9.140;2023-02-18T12:10:22;16.40;1.00
4637;DHT22;2331;48.806;9.140;2023-02-18T12:12:55;16.50;1.00
4637;DHT22;2331;48.806;9.140;2023-02-18T12:15:31;16.70;1.00
4637;DHT22;2331;48.806;9.140;2023-02-18T12:18:11;16.40;1.00
4637;DHT22;2331;48.806;9.140;2023-02-18T12:20:59;16.60;1.00
4637;DHT22;2331;48.806;9.140;2023-02-18T12:23:35;16.60;1.00
4637;DHT22;2331;48.806;9.140;2023-02-18T12:26:16;16.50;1.00
4637;DHT22;2331;48.806;9.140;2023-02-18T12:29:00;16.30;1.00
4637;DHT22;2331;48.806;9.140;2023-02-18T12:31:48;16.40;1.00
4637;DHT22;2331;48.806;9.140;2023-02-18T12:34:29;16.40;1.00
4637;DHT22;2331;48.806;9.140;2023-02-18T12:37:08;16.30;1.00
4637;DHT22;2331;48.806;9.140;2023-02-18T12:39:51;16.20;1.00
4637;DHT22;2331;48.806;9.140;2023-02-18T12:42:32;16.40;1.00
4637;DHT22;2331;48.806;9.140;2023-02-18T12:48:16;16.10;1.00
4637;DHT22;2331;48.806;9.140;2023-02-18T12:50:58;16.20;1.00
4637;DHT22;2331;48.806;9.140;2023-02-18T12:53:47;16.20;1.00
4637;DHT22;2331;48.806;9.140;2023-02-18T12:56:36;16.10;1.00
4637;DHT22;2331;48.806;9.140;2023-02-18T12:59:10;16.10;1.00
4637;DHT22;2331;48.806;9.140;2023-02-18T13:01:47;16.20;1.00
4637;DHT22;2331;48.806;9.140;2023-02-18T13:04:24;16.10;1.00
4637;DHT22;2331;48.806;9.140;2023-02-18T13:07:23;16.10;1.00
4637;DHT22;2331;48.806;9.140;2023-02-18T13:10:04;16.00;1.00
4637;DHT22;2331;48.806;9.140;2023-02-18T13:12:38;16.10;1.00
4637;DHT22;2331;48.806;9.140;2023-02-18T13:15:15;16.10;1.00
4637;DHT22;2331;48.806;9.140;2023-02-18T13:17:44;15.90;1.00
4637;DHT22;2331;48.806;9.140;2023-02-18T13:20:16;15.80;1.00
4637;DHT22;2331;48.806;9.140;2023-02-18T13:22:44;15.60;1.00
4637;DHT22;2331;48.806;9.140;2023-02-18T13:25:14;15.60;1.00
4637;DHT22;2331;48.806;9.140;2023-02-18T13:27:47;15.50;1.00
4637;DHT22;2331;48.806;9.140;2023-02-18T13:30:19;15.70;1.00
4637;DHT22;2331;48.806;9.140;2023-02-18T13:32:57;15.70;1.00
4637;DHT22;2331;48.806;9.140;2023-02-18T13:35:30;15.60;1.00
4637;DHT22;2331;48.806;9.140;2023-02-18T13:38:14;15.60;1.00
4637;DHT22;2331;48.806;9.140;2023-02-18T13:40:43;15.70;1.00
4637;DHT22;2331;48.806;9.140;2023-02-18T13:43:19;15.80;1.00
4637;DHT22;2331;48.806;9.140;2023-02-18T13:46:07;15.80;1.00
4637;DHT22;2331;48.806;9.140;2023-02-18T13:48:41;15.80;1.00
4637;DHT22;2331;48.806;9.140;2023-02-18T13:51:10;16.00;1.00
4637;DHT22;2331;48.806;9.140;2023-02-18T13:53:38;15.90;1.00
4637;DHT22;2331;48.806;9.140;2023-02-18T13:56:08;15.70;1.00
4637;DHT22;2331;48.806;9.140;2023-02-18T13:58:41;15.80;1.00
4637;DHT22;2331;48.806;9.140;2023-02-18T14:01:24;15.60;1.00
4637;DHT22;2331;48.806;9.140;2023-02-18T14:04:00;15.60;1.00
4637;DHT22;2331;48.806;9.140;2023-02-18T14:06:29;15.90;1.00
4637;DHT22;2331;48.806;9.140;2023-02-18T14:09:34;15.70;1.00
4637;DHT22;2331;48.806;9.140;2023-02-18T14:12:25;15.80;1.00
4637;DHT22;2331;48.806;9.140;2023-02-18T14:14:52;15.90;1.00
4637;DHT22;2331;48.806;9.140;2023-02-18T14:17:40;15.90;1.00
4637;DHT22;2331;48.806;9.140;2023-02-18T14:20:31;15.80;1.00
4637;DHT22;2331;48.806;9.140;2023-02-18T14:22:58;15.90;1.00
4637;DHT22;2331;48.806;9.140;2023-02-18T14:25:35;16.10;1.00
4637;DHT22;2331;48.806;9.140;2023-02-18T14:28:21;15.80;1.00
4637;DHT22;2331;48.806;9.140;2023-02-18T14:30:50;15.90;1.00
4637;DHT22;2331;48.806;9.140;2023-02-18T14:33:18;16.00;1.00
4637;DHT22;2331;48.806;9.140;2023-02-18T14:35:51;15.90;1.00
4637;DHT22;2331;48.806;9.140;2023-02-18T14:38:40;16.00;1.00
4637;DHT22;2331;48.806;9.140;2023-02-18T14:41:31;16.00;1.00
4637;DHT22;2331;48.806;9.140;2023-02-18T14:44:22;15.80;1.00
4637;DHT22;2331;48.806;9.140;2023-02-18T14:47:09;15.90;1.00
4637;DHT22;2331;48.806;9.140;2023-02-18T14:49:45;16.00;1.00
4637;DHT22;2331;48.806;9.140;2023-02-18T14:52:22;16.10;1.00
4637;DHT22;2331;48.806;9.140;2023-02-18T14:54:53;16.10;1.00
4637;DHT22;2331;48.806;9.140;2023-02-18T14:57:26;16.00;1.00
4637;DHT22;2331;48.806;9.140;2023-02-18T14:59:57;15.80;1.00
4637;DHT22;2331;48.806;9.140;2023-02-18T15:02:27;15.80;1.00
4637;DHT22;2331;48.806;9.140;2023-02-18T15:05:10;16.00;1.00
4637;DHT22;2331;48.806;9.140;2023-02-18T15:07:39;16.00;1.00
4637;DHT22;2331;48.806;9.140;2023-02-18T15:10:13;16.10;1.00
4637;DHT22;2331;48.806;9.140;2023-02-18T15:12:41;15.80;1.00
4637;DHT22;2331;48.806;9.140;2023-02-18T15:15:18;15.80;1.00
4637;DHT22;2331;48.806;9.140;2023-02-18T15:17:51;15.70;1.00
4637;DHT22;2331;48.806;9.140;2023-02-18T15:20:18;15.80;1.00
4637;DHT22;2331;48.806;9.140;2023-02-18T15:22:47;15.70;1.00
4637;DHT22;2331;48.806;9.140;2023-02-18T15:25:18;15.70;1.00
4637;DHT22;2331;48.806;9.140;2023-02-18T15:27:45;15.70;1.00
4637;DHT22;2331;48.806;9.140;2023-02-18T15:30:20;15.60;1.00
4637;DHT22;2331;48.806;9.140;2023-02-18T15:32:54;15.50;1.00
4637;DHT22;2331;48.806;9.140;2023-02-18T15:35:26;15.60;1.00
4637;DHT22;2331;48.806;9.140;2023-02-18T15:38:00;15.50;1.00
4637;DHT22;2331;48.806;9.140;2023-02-18T15:40:33;15.50;1.00
4637;DHT22;2331;48.806;9.140;2023-02-18T15:43:07;15.40;1.00
4637;DHT22;2331;48.806;9.140;2023-02-18T15:45:37;15.50;1.00
4637;DHT22;2331;48.806;9.140;2023-02-18T15:48:06;15.30;1.00
4637;DHT22;2331;48.806;9.140;2023-02-18T15:50:50;15.50;1.00
4637;DHT22;2331;48.806;9.140;2023-02-18T15:53:22;15.40;1.00
4637;DHT22;2331;48.806;9.140;2023-02-18T15:55:52;15.30;1.00
4637;DHT22;2331;48.806;9.140;2023-02-18T15:58:22;15.40;1.00
4637;DHT22;2331;48.806;9.140;2023-02-18T16:00:52;15.30;1.00
4637;DHT22;2331;48.806;9.140;2023-02-18T16:03:21;15.30;1.00
4637;DHT22;2331;48.806;9.140;2023-02-18T16:05:48;15.30;1.00
4637;DHT22;2331;48.806;9.140;2023-02-18T16:08:26;15.10;1.00
4637;DHT22;2331;48.806;9.140;2023-02-18T16:10:56;15.20;1.00
4637;DHT22;2331;48.806;9.140;2023-02-18T16:13:26;15.20;1.00
4637;DHT22;2331;48.806;9.140;2023-02-18T16:15:59;15.00;1.00
4637;DHT22;2331;48.806;9.140;2023-02-18T16:18:34;15.10;1.00
4637;DHT22;2331;48.806;9.140;2023-02-18T16:23:53;15.10;1.00
4637;DHT22;2331;48.806;9.140;2023-02-18T16:26:27;15.10;1.00
4637;DHT22;2331;48.806;9.140;2023-02-18T16:29:01;15.10;1.00
4637;DHT22;2331;48.806;9.140;2023-02-18T16:31:28;15.10;1.00
4637;DHT22;2331;48.806;9.140;2023-02-18T16:33:54;15.20;1.00
4637;DHT22;2331;48.806;9.140;2023-02-18T16:36:22;15.20;1.00
4637;DHT22;2331;48.806;9.140;2023-02-18T16:38:54;15.20;1.00
4637;DHT22;2331;48.806;9.140;2023-02-18T16:41:23;15.10;1.00
4637;DHT22;2331;48.806;9.140;2023-02-18T16:43:50;15.10;1.00
4637;DHT22;2331;48.806;9.140;2023-02-18T16:46:21;15.00;1.00
4637;DHT22;2331;48.806;9.140;2023-02-18T16:48:49;15.10;1.00
4637;DHT22;2331;48.806;9.140;2023-02-18T16:51:21;15.00;1.00